Daily Summary

Last 30 Days

Daily Data | Pacific/Honolulu
as of 11/27/22 7:54 PM HST
Date Daily Max Temp (°F) Time of Max Temp Daily Min Temp (°F) Time of Min Temp Daily Rain (In) Season Precip (In) Wind Spd (mph) Daily Max Wind (mph) Time of Max Wind Max Wind Dir (°) Daily Solar Rad (Cal/cm2) Daily ETo (in) Dew Pt (°F) Max RH (%) Min RH (%) Max Press (inHg) Time of Max Press Min Press (inHg) Time of Min Press MinBV Day (V)
11/26/22 78.2 1231 68.8 0151 0.04 16.07 6.2 20.6 1212 NE | 42 362 0.132 62.9 83 60 30.08 0110 29.92 1433 12.7
11/25/22 76.7 1343 71.1 0001 0.01 16.03 11.1 34.6 0450 NE | 40 434 0.191 59.0 75 51 30.09 1001 29.98 1455 12.7
11/24/22 75.3 0023 69.2 2225 0.25 16.02 10.2 49.0 1138 NNE | 33 246 0.108 63.0 87 57 30.14 1029 29.98 1412 12.7
11/23/22 81.4 1249 73.9 0655 0.01 15.77 8.1 27.8 1546 NNE | 30 388 0.155 66.2 80 60 30.15 0020 30.00 1503 12.7
11/22/22 81.1 1216 75.9 0616 0.00 15.76 8.6 31.4 1352 NE | 36 419 0.169 66.5 75 61 30.18 0946 30.07 1457 12.7
11/21/22 82.0 1150 75.7 0112 0.00 15.76 9.2 30.2 1716 NNE | 28 448 0.191 65.5 75 54 30.21 0906 30.07 1444 12.7
11/20/22 82.1 1152 74.9 0427 0.04 15.76 11.2 34.8 1643 NNE | 30 464 0.192 67.5 80 60 30.19 0913 30.05 1526 12.7
11/19/22 82.1 1457 75.9 0556 0.08 15.72 8.7 31.7 1600 NE | 50 449 0.173 68.7 81 61 30.18 2139 30.02 1512 12.7
11/18/22 82.8 1520 73.6 0002 0.09 15.64 5.0 22.3 1257 NE | 39 409 0.139 70.1 86 66 30.14 1054 30.02 1442 12.7
11/17/22 83.6 1447 73.7 2356 0.00 15.55 5.4 20.1 2023 NNE | 33 350 0.129 69.4 82 61 30.12 2137 30.02 1434 12.7
11/16/22 81.9 1321 74.7 0028 0.00 15.55 6.8 20.9 1522 NNE | 32 443 0.171 65.7 75 60 30.11 2321 29.99 1419 12.7
11/15/22 80.9 1255 72.1 0313 0.02 15.55 5.8 25.1 1422 ENE | 63 443 0.161 64.3 84 54 30.09 0931 29.95 1433 12.6
11/14/22 83.3 1403 74.5 2146 0.03 15.53 6.9 26.9 1749 ESE | 123 470 0.177 66.7 79 55 30.11 0943 30.00 1603 12.7
11/13/22 82.5 1318 72.1 0427 0.35 15.50 6.9 27.1 1414 NNE | 29 445 0.166 67.2 88 57 30.10 2132 29.98 1414 12.6
11/12/22 80.1 1539 72.7 0748 0.15 15.15 5.1 23.2 0306 NE | 48 294 0.112 65.6 84 60 30.06 0835 29.93 1457 12.7
11/11/22 80.2 1029 75.2 0159 0.00 15.00 5.2 25.9 1638 NE | 36 251 0.122 62.5 76 48 30.14 0001 30.01 1633 12.7
11/10/22 82.0 1309 73.1 0940 0.05 15.00 4.8 22.4 1848 NE | 49 286 0.116 66.4 84 59 30.19 0934 30.04 1555 12.7
11/9/22 82.5 1133 77.1 0536 0.01 14.95 7.3 29.3 1423 NNE | 22 456 0.178 66.9 77 56 30.19 1023 30.08 1611 12.7
11/8/22 83.6 1316 76.2 0258 0.03 14.94 8.6 28.0 1253 NNE | 16 465 0.184 68.4 80 57 30.18 0923 30.07 1536 12.6
11/7/22 84.8 1258 77.6 0716 0.01 14.91 10.0 34.4 1707 NNE | 27 467 0.195 69.1 78 59 30.15 2135 30.02 1652 12.7
11/6/22 84.2 1135 77.7 0511 0.00 14.90 7.6 25.3 1359 NE | 42 431 0.176 69.2 75 60 30.12 2157 30.00 1628 12.7
11/5/22 85.3 1042 78.8 2359 0.00 14.90 8.4 24.5 2213 E | 79 333 0.155 69.9 79 61 30.15 0935 30.04 1456 12.7
11/4/22 86.2 1227 74.9 0659 0.00 14.90 5.8 22.0 1547 NNE | 31 387 0.145 72.1 88 64 30.16 0932 30.04 1458 12.6
11/3/22 85.5 1233 73.9 0514 0.33 14.90 6.1 23.0 1308 E | 89 420 0.157 70.6 87 60 30.19 1001 30.07 1623 12.6
11/2/22 85.3 1245 75.9 0645 0.00 14.57 5.4 18.8 2118 ENE | 72 418 0.155 70.3 84 63 30.15 2158 30.02 1352 12.7
11/1/22 84.3 1246 77.7 0220 0.00 14.57 8.1 30.6 1427 NE | 34 476 0.188 68.8 78 58 30.09 2119 29.94 1421 12.7
10/31/22 84.0 1219 77.9 0341 0.00 14.57 9.9 28.9 1447 NNE | 22 490 0.196 70.0 77 62 30.09 0959 29.96 1535 12.7
10/30/22 84.0 1349 76.0 0410 0.03 14.57 9.1 29.7 1407 NE | 45 468 0.187 69.6 81 61 30.11 1016 29.99 1601 12.7
10/29/22 84.2 1202 76.1 0412 0.06 14.54 7.3 25.2 1528 NNE | 31 506 0.189 69.5 82 60 30.09 2146 29.98 1423 12.7
10/28/22 83.4 1337 74.5 0639 0.53 14.48 5.4 19.9 1211 NNE | 22 447 0.150 70.5 85 62 30.05 2223 29.93 1433 12.6
Max 86.2 - 78.8 - 0.53 16.07 11.2 49.0 - - 506 0.196 72.1 88 66 30.21 - 30.08 - 12.7
Avg - - - - - - 7.5 - - - - - 67.4 - - - - - - -
Min 75.3 - 68.8 - 0.00 14.48 4.8 18.8 - - 246 0.108 59.0 75 48 30.05 - 29.92 - 12.6